Time;durP1;ratioP1;P1;durP2;ratioP2;P2;SDS_P1;SDS_P2;PMS_P1;PMS_P2;Temp;Humidity;BMP_temperature;BMP_pressure;BME280_temperature;BME280_humidity;BME280_pressure;Samples;Min_cycle;Max_cycle;Signal;HPM_P1;HPM_P2
2024/01/17 00:01:44;;;;;;;13.20;3.90;;;-5.70;99.90;;;;;;5070768;28;20244;-84
2024/01/17 00:04:10;;;;;;;3.67;3.47;;;;;;;;;;5063279;28;20196;-85
2024/01/17 00:06:35;;;;;;;12.53;5.77;;;-5.80;99.90;;;;;;5065227;28;20245;-84
2024/01/17 00:09:01;;;;;;;4.67;2.87;;;-5.80;99.90;;;;;;5066225;28;21049;-85
2024/01/17 00:11:26;;;;;;;8.93;5.00;;;-5.50;99.90;;;;;;5066118;28;20184;-85
2024/01/17 00:13:52;;;;;;;16.27;7.13;;;-5.70;99.90;;;;;;5068306;28;20181;-85
2024/01/17 00:16:22;;;;;;;14.00;3.43;;;-5.70;99.90;;;;;;5069673;28;20235;-83
2024/01/17 00:18:48;;;;;;;5.97;5.38;;;-5.70;99.90;;;;;;5063174;28;20177;-84
2024/01/17 00:21:14;;;;;;;14.40;4.13;;;-5.70;99.90;;;;;;5062818;28;20717;-85
2024/01/17 00:23:39;;;;;;;6.33;3.73;;;-5.80;99.90;;;;;;5079654;28;20987;-84
2024/01/17 00:26:05;;;;;;;3.10;2.80;;;-5.70;99.90;;;;;;5060475;28;20323;-84
2024/01/17 00:28:31;;;;;;;13.93;5.67;;;-5.60;99.90;;;;;;5076804;28;20251;-85
2024/01/17 00:30:57;;;;;;;7.90;5.90;;;-5.50;99.90;;;;;;5077132;28;20434;-84
2024/01/17 00:33:22;;;;;;;7.00;4.07;;;-5.50;99.90;;;;;;5062808;28;20740;-86
2024/01/17 00:35:48;;;;;;;4.83;4.33;;;-5.50;99.90;;;;;;5058148;28;20169;-86
2024/01/17 00:38:14;;;;;;;10.17;4.23;;;-5.50;99.90;;;;;;5061671;28;20249;-86
2024/01/17 00:40:39;;;;;;;3.80;3.50;;;-5.60;99.90;;;;;;5064617;28;20188;-86
2024/01/17 00:43:05;;;;;;;4.23;4.00;;;-5.80;99.90;;;;;;5068030;28;20428;-85
2024/01/17 00:45:31;;;;;;;5.73;3.80;;;-5.80;99.90;;;;;;5062896;28;20188;-85
2024/01/17 00:47:56;;;;;;;4.53;3.80;;;-5.90;99.90;;;;;;5073675;28;20207;-86
2024/01/17 00:50:22;;;;;;;12.33;3.60;;;-5.90;99.90;;;;;;5069292;28;20777;-85
2024/01/17 00:52:48;;;;;;;6.93;3.93;;;-5.90;99.90;;;;;;5062914;28;20187;-85
2024/01/17 00:55:13;;;;;;;5.57;1.67;;;-5.90;99.90;;;;;;5072414;28;20482;-86
2024/01/17 00:57:39;;;;;;;4.73;4.53;;;-5.60;99.90;;;;;;5067618;28;20196;-85
2024/01/17 01:00:08;;;;;;;15.90;4.03;;;-5.60;99.90;;;;;;5064731;28;20211;-85
2024/01/17 01:02:33;;;;;;;5.85;2.95;;;-5.80;99.90;;;;;;5071222;28;20199;-85
2024/01/17 01:05:00;;;;;;;4.23;3.43;;;-5.80;99.90;;;;;;5068928;28;20184;-83
2024/01/17 01:07:25;;;;;;;5.20;4.72;;;-5.70;99.90;;;;;;5080539;28;20307;-84
2024/01/17 01:09:51;;;;;;;5.23;4.70;;;-5.70;99.90;;;;;;5070506;28;20188;-85
2024/01/17 01:12:16;;;;;;;12.70;5.80;;;-5.60;99.90;;;;;;5068415;28;20185;-83
2024/01/17 01:14:42;;;;;;;3.93;3.03;;;-5.50;99.90;;;;;;5067358;28;20172;-83
2024/01/17 01:17:08;;;;;;;6.10;2.97;;;-5.40;99.90;;;;;;5070842;28;20280;-87
2024/01/17 01:19:33;;;;;;;7.23;3.53;;;-5.40;99.90;;;;;;5070519;28;20192;-84
2024/01/17 01:21:58;;;;;;;10.33;5.77;;;-5.30;99.90;;;;;;5069067;28;20200;-85
2024/01/17 01:24:27;;;;;;;6.23;5.33;;;-5.40;99.90;;;;;;5071613;28;20189;-84
2024/01/17 01:26:53;;;;;;;10.77;3.15;;;-5.40;99.90;;;;;;5077048;28;20220;-84
2024/01/17 01:29:20;;;;;;;12.80;3.20;;;-5.40;99.90;;;;;;5075084;28;20189;-85
2024/01/17 01:31:45;;;;;;;6.75;4.78;;;-5.40;99.90;;;;;;5074715;28;20565;-85
2024/01/17 01:34:11;;;;;;;7.50;4.40;;;-5.50;99.90;;;;;;5065400;28;20267;-86
2024/01/17 01:36:37;;;;;;;3.60;2.40;;;-5.50;99.90;;;;;;5072438;28;20291;-85
2024/01/17 01:39:03;;;;;;;7.07;3.27;;;;;;;;;;5071905;28;20241;-86
2024/01/17 01:41:47;;;;;;;4.17;3.80;;;-5.40;99.90;;;;;;5077772;28;20537;-84
2024/01/17 01:44:12;;;;;;;9.55;4.78;;;-5.40;99.90;;;;;;5077291;28;20780;-86
2024/01/17 01:46:39;;;;;;;4.07;3.77;;;-5.40;99.90;;;;;;5073398;28;20200;-87
2024/01/17 01:49:04;;;;;;;6.32;4.15;;;-5.30;99.90;;;;;;5071884;28;20180;-86
2024/01/17 01:51:30;;;;;;;19.63;2.97;;;-5.10;99.90;;;;;;5062609;28;20671;-86
2024/01/17 01:54:03;;;;;;;5.93;3.70;;;-5.00;99.90;;;;;;5069486;28;20184;-86
2024/01/17 01:56:30;;;;;;;3.35;3.15;;;-4.90;99.90;;;;;;5066185;28;20192;-86
2024/01/17 01:58:57;;;;;;;10.60;7.13;;;-4.90;99.90;;;;;;5068533;28;20191;-85
2024/01/17 02:01:25;;;;;;;20.90;4.32;;;-4.90;99.90;;;;;;5091213;28;20204;-86
2024/01/17 02:03:53;;;;;;;5.97;4.82;;;-4.70;99.90;;;;;;5074373;28;20173;-85
2024/01/17 02:06:21;;;;;;;9.57;4.15;;;-4.70;99.90;;;;;;5076532;28;20229;-85
2024/01/17 02:08:46;;;;;;;5.43;4.93;;;-4.80;99.90;;;;;;5077289;28;20259;-86
2024/01/17 02:11:13;;;;;;;3.10;2.20;;;-4.70;99.90;;;;;;5085984;28;20222;-84
2024/01/17 02:13:40;;;;;;;3.58;3.28;;;-4.70;99.90;;;;;;5066899;28;20174;-84
2024/01/17 02:16:06;;;;;;;6.93;3.78;;;-4.70;99.90;;;;;;5071804;28;20188;-84
2024/01/17 02:18:31;;;;;;;4.18;3.88;;;-4.70;99.90;;;;;;5070163;28;20193;-84
2024/01/17 02:20:57;;;;;;;6.67;4.03;;;-4.60;99.90;;;;;;5065897;28;20180;-85
2024/01/17 02:23:29;;;;;;;8.90;3.43;;;-4.50;99.90;;;;;;5069003;28;20216;-85
2024/01/17 02:25:56;;;;;;;4.90;4.10;;;-4.50;99.90;;;;;;5074292;28;20204;-84
2024/01/17 02:28:24;;;;;;;4.28;3.88;;;-4.10;99.90;;;;;;5071679;28;20209;-84
2024/01/17 02:30:49;;;;;;;11.35;5.05;;;-4.10;99.90;;;;;;5071803;28;20187;-84
2024/01/17 02:33:16;;;;;;;13.50;5.13;;;-4.00;99.90;;;;;;5072745;28;20252;-85
2024/01/17 02:35:42;;;;;;;31.20;7.45;;;-4.10;99.90;;;;;;5089219;28;20186;-85
2024/01/17 02:38:08;;;;;;;15.60;4.30;;;-4.10;99.90;;;;;;5069820;28;20564;-85
2024/01/17 02:40:33;;;;;;;9.53;5.23;;;-4.10;99.90;;;;;;5068923;28;20189;-85
2024/01/17 02:42:59;;;;;;;12.77;5.37;;;-4.20;99.90;;;;;;5072526;28;20243;-83
2024/01/17 02:45:25;;;;;;;8.98;3.88;;;-4.30;99.90;;;;;;5069312;28;20185;-87
2024/01/17 02:47:51;;;;;;;40.00;7.53;;;-4.30;99.90;;;;;;5067740;28;20200;-84
2024/01/17 02:50:17;;;;;;;3.03;2.73;;;-4.30;99.90;;;;;;5072498;28;20182;-85
2024/01/17 02:52:45;;;;;;;9.25;4.22;;;-4.30;99.90;;;;;;5067002;28;20200;-84
2024/01/17 02:55:13;;;;;;;5.72;5.20;;;-4.40;99.90;;;;;;5086282;28;20284;-84
2024/01/17 02:57:39;;;;;;;6.00;4.03;;;-4.30;99.90;;;;;;5074032;28;20201;-85
2024/01/17 03:00:06;;;;;;;6.53;4.65;;;-4.20;99.90;;;;;;5067353;28;20210;-85
2024/01/17 03:02:32;;;;;;;4.15;3.88;;;-4.20;99.90;;;;;;5071161;28;20204;-86
2024/01/17 03:04:58;;;;;;;8.17;6.20;;;-4.20;99.90;;;;;;5070119;28;20188;-86
2024/01/17 03:07:23;;;;;;;6.90;4.13;;;-4.10;99.90;;;;;;5072997;28;20870;-85
2024/01/17 03:09:49;;;;;;;3.30;2.40;;;-4.20;99.90;;;;;;5076631;28;20176;-84
2024/01/17 03:12:15;;;;;;;3.50;3.30;;;-4.20;99.90;;;;;;5075392;28;21226;-84
2024/01/17 03:14:41;;;;;;;3.17;2.95;;;-4.20;99.90;;;;;;5071153;28;20188;-84
2024/01/17 03:17:08;;;;;;;8.27;3.20;;;-4.10;99.90;;;;;;5067344;28;20205;-84
2024/01/17 03:19:33;;;;;;;10.50;5.57;;;-3.90;99.90;;;;;;5067588;28;20473;-84
2024/01/17 03:22:01;;;;;;;7.30;4.00;;;-3.80;99.90;;;;;;5086463;28;20184;-84
2024/01/17 03:24:27;;;;;;;16.90;6.22;;;-3.80;99.90;;;;;;5071261;28;20192;-83
2024/01/17 03:26:52;;;;;;;9.80;4.27;;;-3.60;99.90;;;;;;5067833;28;20205;-85
2024/01/17 03:29:18;;;;;;;2.47;2.27;;;-3.50;99.90;;;;;;5076053;28;20456;-85
2024/01/17 03:31:43;;;;;;;15.63;7.30;;;-3.50;99.90;;;;;;5074414;28;20849;-83
2024/01/17 03:34:09;;;;;;;2.97;2.77;;;;;;;;;;5068942;28;20181;-85
2024/01/17 03:36:35;;;;;;;6.30;4.13;;;-3.30;99.90;;;;;;5085095;28;20299;-83
2024/01/17 03:39:00;;;;;;;7.43;4.07;;;-3.30;99.90;;;;;;5071622;28;20461;-84
2024/01/17 03:41:26;;;;;;;14.30;5.03;;;-3.20;99.90;;;;;;5070181;28;20733;-85
2024/01/17 03:43:58;;;;;;;6.20;3.07;;;-3.30;99.90;;;;;;5069505;28;20188;-85
2024/01/17 03:46:24;;;;;;;4.07;2.65;;;-3.30;99.90;;;;;;5076854;28;20205;-85
2024/01/17 03:48:50;;;;;;;7.23;4.63;;;-3.30;99.90;;;;;;5069957;28;20680;-85
2024/01/17 03:51:16;;;;;;;10.68;4.65;;;-3.30;99.90;;;;;;5069691;28;20188;-85
2024/01/17 03:53:42;;;;;;;8.80;4.95;;;-3.10;99.90;;;;;;5076558;28;20181;-84
2024/01/17 03:56:08;;;;;;;9.10;3.80;;;-3.10;99.90;;;;;;5074964;28;20207;-83
2024/01/17 03:58:33;;;;;;;9.13;4.80;;;-2.90;99.90;;;;;;5070312;28;20948;-84
2024/01/17 04:01:01;;;;;;;9.00;3.70;;;-2.80;99.90;;;;;;5075062;28;20199;-83
2024/01/17 04:03:27;;;;;;;6.28;4.57;;;-2.90;99.90;;;;;;5067634;28;20184;-84
2024/01/17 04:05:53;;;;;;;2.90;2.70;;;;;;;;;;5067040;28;20188;-84
2024/01/17 04:08:20;;;;;;;8.10;6.53;;;-3.30;99.90;;;;;;5073427;28;20204;-84
2024/01/17 04:10:45;;;;;;;2.30;2.10;;;-3.30;99.90;;;;;;5068952;28;20182;-83
2024/01/17 04:13:11;;;;;;;7.03;2.07;;;-3.50;99.90;;;;;;5068170;28;20181;-83
2024/01/17 04:15:36;;;;;;;5.20;4.70;;;-3.60;99.90;;;;;;5065353;28;20180;-84
2024/01/17 04:18:02;;;;;;;7.57;3.30;;;-3.60;99.90;;;;;;5075450;28;20256;-83
2024/01/17 04:20:27;;;;;;;8.03;3.73;;;-3.60;99.90;;;;;;5071341;28;20280;-84
2024/01/17 04:22:53;;;;;;;26.70;7.27;;;-3.60;99.90;;;;;;5065299;28;21089;-83
2024/01/17 04:25:18;;;;;;;2.93;2.67;;;-3.60;99.90;;;;;;5065193;28;20867;-84
2024/01/17 04:27:44;;;;;;;10.40;5.17;;;-3.70;99.90;;;;;;5061741;28;20218;-84
2024/01/17 04:30:14;;;;;;;23.23;5.23;;;-3.60;99.90;;;;;;5061287;28;20189;-84
2024/01/17 04:32:41;;;;;;;3.15;2.72;;;-3.60;99.90;;;;;;5065302;28;20261;-84
2024/01/17 04:35:07;;;;;;;6.38;3.78;;;-3.60;99.90;;;;;;5063299;28;20317;-86
2024/01/17 04:37:32;;;;;;;3.53;3.23;;;-3.50;99.90;;;;;;5071085;28;20220;-87
2024/01/17 04:39:58;;;;;;;4.97;4.53;;;-3.50;99.90;;;;;;5061541;28;20442;-83
2024/01/17 04:42:23;;;;;;;6.13;4.23;;;-3.50;99.90;;;;;;5065819;28;20203;-83
2024/01/17 04:44:49;;;;;;;7.70;3.60;;;-3.50;99.90;;;;;;5068891;28;20264;-84
2024/01/17 04:47:15;;;;;;;31.03;6.10;;;-3.50;99.90;;;;;;5067500;28;20341;-83
2024/01/17 04:49:42;;;;;;;5.45;2.20;;;-3.50;99.90;;;;;;5069891;28;20228;-84
2024/01/17 04:52:09;;;;;;;6.95;3.63;;;-3.40;99.90;;;;;;5069193;28;20177;-84
2024/01/17 04:54:35;;;;;;;2.80;2.60;;;-3.30;99.90;;;;;;5066797;28;20185;-84
2024/01/17 04:57:00;;;;;;;3.67;3.10;;;-3.30;99.90;;;;;;5066274;28;20208;-83
2024/01/17 04:59:26;;;;;;;4.13;2.53;;;-3.40;99.90;;;;;;5071801;28;20177;-84
2024/01/17 05:01:52;;;;;;;6.77;3.20;;;-3.40;99.90;;;;;;5070021;28;20244;-84
2024/01/17 05:04:17;;;;;;;4.87;3.73;;;-3.40;99.90;;;;;;5061736;28;20451;-86
2024/01/17 05:06:43;;;;;;;8.03;4.07;;;-3.40;99.90;;;;;;5062509;28;20200;-87
2024/01/17 05:09:11;;;;;;;2.73;2.53;;;-3.30;99.90;;;;;;5064336;28;20173;-87
2024/01/17 05:11:37;;;;;;;3.47;3.15;;;-3.30;99.90;;;;;;5078967;28;20182;-87
2024/01/17 05:14:03;;;;;;;7.07;4.20;;;;;;;;;;5080345;28;20217;-87
2024/01/17 05:16:28;;;;;;;3.93;3.27;;;-3.20;99.90;;;;;;5061500;28;20427;-86
2024/01/17 05:18:54;;;;;;;4.40;2.57;;;-3.00;99.90;;;;;;5077034;28;20510;-86
2024/01/17 05:21:20;;;;;;;7.50;4.57;;;-3.00;99.90;;;;;;5061213;28;20544;-87
2024/01/17 05:23:45;;;;;;;5.37;3.53;;;-2.90;99.90;;;;;;5079292;28;20324;-87
2024/01/17 05:26:11;;;;;;;4.47;4.07;;;-2.60;99.90;;;;;;5083937;28;20775;-86
2024/01/17 05:28:36;;;;;;;3.13;2.80;;;-2.60;99.90;;;;;;5075198;28;20212;-88
2024/01/17 05:31:02;;;;;;;4.83;4.37;;;-2.50;99.90;;;;;;5065957;28;20212;-87
2024/01/17 05:33:28;;;;;;;9.73;5.63;;;-2.40;99.90;;;;;;5069122;28;20227;-84
2024/01/17 05:35:53;;;;;;;5.50;5.07;;;-2.60;99.90;;;;;;5073185;28;20185;-85
2024/01/17 05:38:19;;;;;;;9.20;4.87;;;-2.60;99.90;;;;;;5075863;28;20189;-87
2024/01/17 05:40:44;;;;;;;21.63;4.20;;;-2.70;99.90;;;;;;5066729;28;20188;-84
2024/01/17 05:43:10;;;;;;;4.70;3.70;;;-2.60;99.90;;;;;;5065087;28;20200;-83
2024/01/17 05:45:37;;;;;;;4.67;3.37;;;-2.40;99.90;;;;;;5072315;28;20184;-84
2024/01/17 05:48:03;;;;;;;4.15;2.90;;;-2.40;99.90;;;;;;5081567;28;20213;-84
2024/01/17 05:50:29;;;;;;;5.40;3.60;;;-2.30;99.90;;;;;;5066738;28;20272;-84
2024/01/17 05:52:54;;;;;;;8.90;6.60;;;-2.30;99.90;;;;;;5065151;28;20181;-84
2024/01/17 05:55:20;;;;;;;4.93;3.53;;;-2.30;99.90;;;;;;5063108;28;21456;-84
2024/01/17 05:57:50;;;;;;;3.50;3.00;;;;;;;;;;5063622;28;20917;-83
2024/01/17 06:00:18;;;;;;;5.50;5.00;;;-2.40;99.90;;;;;;5063755;28;20183;-85
2024/01/17 06:02:44;;;;;;;6.93;3.55;;;-2.40;99.90;;;;;;5067313;28;20192;-85
2024/01/17 06:05:11;;;;;;;11.30;3.10;;;-2.40;99.90;;;;;;5066558;28;20299;-85
2024/01/17 06:07:39;;;;;;;18.05;4.13;;;-2.30;99.90;;;;;;5059122;28;20479;-85
2024/01/17 06:10:05;;;;;;;4.28;3.13;;;-2.20;99.90;;;;;;5068256;28;20173;-84
2024/01/17 06:12:31;;;;;;;8.40;3.67;;;-2.20;99.90;;;;;;5067127;28;20271;-84
2024/01/17 06:14:57;;;;;;;13.25;5.88;;;-2.10;99.90;;;;;;5068268;28;20182;-85
2024/01/17 06:17:22;;;;;;;11.50;5.03;;;-2.00;99.90;;;;;;5067738;28;20258;-84
2024/01/17 06:19:48;;;;;;;10.50;5.33;;;-2.00;99.90;;;;;;5083061;28;20263;-83
2024/01/17 06:22:18;;;;;;;7.67;4.03;;;-1.80;99.90;;;;;;5064388;28;20203;-84
2024/01/17 06:24:44;;;;;;;5.35;3.70;;;-1.80;99.90;;;;;;5067609;28;20273;-84
2024/01/17 06:27:09;;;;;;;5.60;3.70;;;-1.90;99.90;;;;;;5069597;28;20213;-84
2024/01/17 06:29:35;;;;;;;13.10;8.47;;;-1.90;99.90;;;;;;5066782;28;20244;-84
2024/01/17 06:32:01;;;;;;;5.97;4.73;;;-1.80;99.90;;;;;;5067937;28;20200;-84
2024/01/17 06:34:27;;;;;;;5.45;4.22;;;-1.80;99.90;;;;;;5072109;28;20184;-85
2024/01/17 06:36:53;;;;;;;4.05;3.58;;;;;;;;;;5061108;28;20213;-85
2024/01/17 06:39:19;;;;;;;9.00;4.13;;;-1.70;99.90;;;;;;5060054;28;20755;-84
2024/01/17 06:41:45;;;;;;;16.90;5.77;;;-1.60;99.90;;;;;;5061119;28;20449;-84
2024/01/17 06:44:11;;;;;;;8.05;5.20;;;-1.50;99.90;;;;;;5060993;28;20189;-84
2024/01/17 06:46:36;;;;;;;3.47;3.13;;;-1.50;99.90;;;;;;5060716;28;20188;-85
2024/01/17 06:49:03;;;;;;;11.90;5.83;;;-1.40;99.90;;;;;;5064942;28;20180;-84
2024/01/17 06:51:28;;;;;;;10.13;5.75;;;-1.20;99.90;;;;;;5064449;28;20193;-84
2024/01/17 06:53:54;;;;;;;13.23;4.83;;;-1.10;99.90;;;;;;5068914;28;20203;-84
2024/01/17 06:56:19;;;;;;;10.80;5.60;;;-1.10;99.90;;;;;;5064927;28;20850;-85
2024/01/17 06:58:45;;;;;;;10.90;4.53;;;-1.10;99.90;;;;;;5064472;28;20083;-85
2024/01/17 07:01:10;;;;;;;6.43;4.67;;;-1.00;99.90;;;;;;5075392;28;20184;-85
2024/01/17 07:03:36;;;;;;;6.03;4.40;;;-0.90;99.90;;;;;;5067516;28;20201;-85
2024/01/17 07:06:04;;;;;;;12.53;5.33;;;-0.90;99.90;;;;;;5061851;28;20255;-84
2024/01/17 07:08:29;;;;;;;7.90;3.80;;;-0.80;99.90;;;;;;5071534;28;20491;-84
2024/01/17 07:10:55;;;;;;;37.23;5.10;;;-0.90;99.90;;;;;;5065923;28;20712;-84
2024/01/17 07:13:20;;;;;;;8.00;6.13;;;-0.90;99.90;;;;;;5065478;28;20177;-85
2024/01/17 07:15:46;;;;;;;11.53;6.30;;;-0.70;99.90;;;;;;5062901;28;20206;-84
2024/01/17 07:18:11;;;;;;;6.63;4.20;;;-0.70;99.90;;;;;;5066362;28;20250;-85
2024/01/17 07:20:37;;;;;;;7.03;5.27;;;-0.70;99.90;;;;;;5067287;28;20183;-85
2024/01/17 07:23:03;;;;;;;12.40;6.70;;;-0.60;99.90;;;;;;5067717;28;20191;-85
2024/01/17 07:25:32;;;;;;;15.13;8.00;;;-0.40;99.90;;;;;;5060940;28;20319;-84
2024/01/17 07:27:57;;;;;;;7.28;4.85;;;-0.30;99.90;;;;;;5060458;28;20246;-85
2024/01/17 07:30:23;;;;;;;13.57;6.30;;;-0.30;99.90;;;;;;5062660;28;20196;-86
2024/01/17 07:32:48;;;;;;;11.30;5.27;;;-0.20;99.90;;;;;;5058602;28;20205;-84
2024/01/17 07:35:14;;;;;;;8.73;6.63;;;-0.10;99.90;;;;;;5060793;28;20188;-84
2024/01/17 07:37:40;;;;;;;8.30;7.17;;;0.00;99.90;;;;;;5058814;28;20216;-84
2024/01/17 07:40:08;;;;;;;5.27;4.40;;;0.00;99.90;;;;;;5064104;28;20207;-84
2024/01/17 07:42:34;;;;;;;6.10;5.20;;;0.00;99.90;;;;;;5066794;28;20233;-85
2024/01/17 07:44:59;;;;;;;8.07;5.77;;;-0.10;99.90;;;;;;5063782;28;20215;-84
2024/01/17 07:47:25;;;;;;;13.90;7.50;;;-0.20;99.90;;;;;;5063395;28;20213;-85
2024/01/17 07:49:50;;;;;;;10.57;4.13;;;-0.10;99.90;;;;;;5061803;28;20303;-85
2024/01/17 07:52:16;;;;;;;24.47;6.00;;;-0.10;99.90;;;;;;5055618;28;20185;-85
2024/01/17 07:54:41;;;;;;;29.17;6.50;;;0.00;99.90;;;;;;5058332;28;20257;-86
2024/01/17 07:57:07;;;;;;;6.60;3.90;;;0.00;99.90;;;;;;5057395;28;20254;-85
2024/01/17 07:59:32;;;;;;;14.30;5.77;;;0.10;99.90;;;;;;5057538;28;20212;-85
2024/01/17 08:01:58;;;;;;;7.93;4.53;;;0.10;99.90;;;;;;5061344;28;20184;-84
2024/01/17 08:04:24;;;;;;;12.97;4.43;;;0.30;99.90;;;;;;5075543;28;20181;-85
2024/01/17 08:06:50;;;;;;;10.63;5.47;;;0.20;99.90;;;;;;5074585;28;20207;-86
2024/01/17 08:09:21;;;;;;;4.13;3.73;;;0.40;99.90;;;;;;5058362;28;20184;-85
2024/01/17 08:11:52;;;;;;;6.30;4.97;;;0.40;99.90;;;;;;5055749;28;21041;-85
2024/01/17 08:14:17;;;;;;;6.45;4.43;;;0.50;99.90;;;;;;5059764;28;20697;-85
2024/01/17 08:16:44;;;;;;;11.10;5.20;;;0.60;99.90;;;;;;5059579;28;20300;-86
2024/01/17 08:19:10;;;;;;;8.55;5.93;;;0.60;99.90;;;;;;5066684;28;20410;-85
2024/01/17 08:21:36;;;;;;;11.43;6.73;;;0.60;99.90;;;;;;5078461;28;20177;-85
2024/01/17 08:24:02;;;;;;;15.05;6.03;;;0.60;99.90;;;;;;5059115;28;20181;-85
2024/01/17 08:26:28;;;;;;;11.40;5.83;;;0.60;99.90;;;;;;5063010;28;20218;-85
2024/01/17 08:28:55;;;;;;;10.55;4.57;;;0.70;99.90;;;;;;5066374;28;20201;-85
2024/01/17 08:31:20;;;;;;;6.13;4.28;;;0.70;99.90;;;;;;5076704;28;20177;-85
2024/01/17 08:33:46;;;;;;;3.17;2.87;;;0.80;99.90;;;;;;5063534;28;20187;-84
2024/01/17 08:36:14;;;;;;;8.53;3.73;;;0.90;99.90;;;;;;5067911;28;20247;-85
2024/01/17 08:38:40;;;;;;;5.53;4.70;;;1.10;99.90;;;;;;5063457;28;20285;-84
2024/01/17 08:41:07;;;;;;;4.35;2.88;;;1.20;99.90;;;;;;5075356;28;20195;-85
2024/01/17 08:43:33;;;;;;;10.75;5.30;;;1.20;99.90;;;;;;5060368;28;20192;-85
2024/01/17 08:46:00;;;;;;;5.03;2.47;;;1.30;99.90;;;;;;5065480;28;20234;-85
2024/01/17 08:48:26;;;;;;;7.35;4.60;;;1.20;99.90;;;;;;5059169;28;20265;-85
2024/01/17 08:50:51;;;;;;;6.13;4.90;;;1.30;99.90;;;;;;5060859;28;20204;-85
2024/01/17 08:53:17;;;;;;;7.80;4.97;;;1.30;99.90;;;;;;5064071;28;20242;-85
2024/01/17 08:55:42;;;;;;;6.90;4.30;;;1.40;99.90;;;;;;5063253;28;20192;-85
2024/01/17 08:58:08;;;;;;;12.13;10.97;;;1.40;99.90;;;;;;5059988;28;20218;-84
2024/01/17 09:00:33;;;;;;;3.47;2.93;;;1.40;99.90;;;;;;5060699;28;20261;-85
2024/01/17 09:02:59;;;;;;;10.43;6.30;;;1.40;99.90;;;;;;5061625;28;20267;-84
2024/01/17 09:05:24;;;;;;;4.03;2.50;;;1.50;99.90;;;;;;5060787;28;20183;-84
2024/01/17 09:07:50;;;;;;;3.77;2.53;;;1.50;99.90;;;;;;5059114;28;20693;-85
2024/01/17 09:10:17;;;;;;;1.57;1.47;;;1.50;99.90;;;;;;5075178;28;20185;-85
2024/01/17 09:12:45;;;;;;;11.40;4.82;;;1.60;99.90;;;;;;5062160;28;20451;-85
2024/01/17 09:15:11;;;;;;;11.18;4.63;;;1.60;99.90;;;;;;5062786;28;20234;-86
2024/01/17 09:17:37;;;;;;;10.87;3.90;;;1.70;99.90;;;;;;5060682;28;20209;-86
2024/01/17 09:20:03;;;;;;;4.13;2.40;;;1.70;99.90;;;;;;5066133;28;20621;-85
2024/01/17 09:22:29;;;;;;;7.88;4.03;;;1.80;99.90;;;;;;5061227;28;20180;-85
2024/01/17 09:24:55;;;;;;;14.13;6.67;;;1.80;99.90;;;;;;5075940;28;20196;-85
2024/01/17 09:27:20;;;;;;;7.00;5.63;;;1.80;99.90;;;;;;5058348;28;20760;-84
2024/01/17 09:29:46;;;;;;;5.20;2.87;;;1.90;99.90;;;;;;5066911;28;20177;-87
2024/01/17 09:32:13;;;;;;;10.50;6.50;;;1.90;99.90;;;;;;5061459;28;20700;-85
2024/01/17 09:34:39;;;;;;;8.55;5.13;;;2.00;99.90;;;;;;5061709;28;20995;-85
2024/01/17 09:37:05;;;;;;;9.23;6.38;;;2.10;99.90;;;;;;5058082;28;20210;-84
2024/01/17 09:39:30;;;;;;;5.05;4.55;;;2.20;99.90;;;;;;5057627;28;20243;-87
2024/01/17 09:41:59;;;;;;;8.77;4.50;;;2.20;99.90;;;;;;5063394;28;20206;-86
2024/01/17 09:44:25;;;;;;;9.38;5.50;;;2.20;99.90;;;;;;5064642;28;20283;-85
2024/01/17 09:46:51;;;;;;;6.00;3.75;;;2.30;99.90;;;;;;5080653;28;20259;-84
2024/01/17 09:49:17;;;;;;;3.42;1.63;;;2.20;99.90;;;;;;5065247;28;20626;-85
2024/01/17 09:51:43;;;;;;;3.37;2.73;;;2.20;99.90;;;;;;5061481;28;20184;-84
2024/01/17 09:54:09;;;;;;;6.93;4.30;;;2.30;99.90;;;;;;5076678;28;20181;-86
2024/01/17 09:56:37;;;;;;;6.95;3.15;;;2.30;99.90;;;;;;5060018;28;20204;-84
2024/01/17 09:59:17;;;;;;;14.27;5.88;;;2.30;99.90;;;;;;5062149;28;20184;-86
2024/01/17 10:01:44;;;;;;;7.13;2.60;;;2.30;99.90;;;;;;5062571;28;20199;-86
2024/01/17 10:04:13;;;;;;;15.48;8.60;;;2.40;99.90;;;;;;5065434;28;20196;-85
2024/01/17 10:06:42;;;;;;;3.38;2.38;;;2.40;99.90;;;;;;5059475;28;20263;-85
2024/01/17 10:09:08;;;;;;;19.65;4.80;;;2.40;99.90;;;;;;5063431;28;20192;-85
2024/01/17 10:11:34;;;;;;;3.40;2.53;;;2.40;99.90;;;;;;5061568;28;20263;-85
2024/01/17 10:14:01;;;;;;;7.93;4.27;;;2.50;99.90;;;;;;5057744;28;20189;-85
2024/01/17 10:16:26;;;;;;;4.30;3.08;;;2.50;99.90;;;;;;5060498;28;20203;-84
2024/01/17 10:18:52;;;;;;;7.73;3.43;;;2.50;99.90;;;;;;5058684;28;20188;-86
2024/01/17 10:21:17;;;;;;;5.10;4.17;;;2.50;99.90;;;;;;5064742;28;20202;-86
2024/01/17 10:23:43;;;;;;;6.90;3.77;;;2.60;99.90;;;;;;5067190;28;20193;-85
2024/01/17 10:26:09;;;;;;;5.87;3.33;;;2.60;99.90;;;;;;5067076;28;20266;-85
2024/01/17 10:28:35;;;;;;;1.95;1.55;;;2.60;99.90;;;;;;5071461;28;20205;-85
2024/01/17 10:31:03;;;;;;;5.43;5.03;;;2.70;99.90;;;;;;5067414;28;20739;-85
2024/01/17 10:33:28;;;;;;;13.05;4.50;;;2.70;99.90;;;;;;5083926;28;20200;-85
2024/01/17 10:35:54;;;;;;;12.47;5.70;;;2.80;99.90;;;;;;5070660;28;20181;-84
2024/01/17 10:38:20;;;;;;;7.83;3.33;;;2.80;99.90;;;;;;5064482;28;23312;-86
2024/01/17 10:40:46;;;;;;;6.30;4.80;;;2.80;99.90;;;;;;5064129;28;20965;-86
2024/01/17 10:43:13;;;;;;;7.17;3.43;;;2.90;99.90;;;;;;5065820;28;20193;-83
2024/01/17 10:45:41;;;;;;;7.22;2.60;;;2.90;99.90;;;;;;5067962;28;20203;-85
2024/01/17 10:48:07;;;;;;;4.63;2.67;;;2.90;99.90;;;;;;5063907;28;20203;-85
2024/01/17 10:50:33;;;;;;;1.33;1.23;;;2.90;99.90;;;;;;5071343;28;20195;-84
2024/01/17 10:53:05;;;;;;;5.60;3.00;;;2.90;99.90;;;;;;5068883;28;20275;-84
2024/01/17 10:55:38;;;;;;;8.32;3.58;;;3.00;99.90;;;;;;5070169;28;20181;-85
2024/01/17 10:58:09;;;;;;;9.88;4.45;;;3.00;99.90;;;;;;5064232;28;20181;-83
2024/01/17 11:00:38;;;;;;;4.22;1.40;;;3.10;99.90;;;;;;5069343;28;20188;-84
2024/01/17 11:03:08;;;;;;;14.05;4.85;;;3.10;99.90;;;;;;5067956;28;20191;-83
2024/01/17 11:05:46;;;;;;;3.55;2.10;;;3.00;99.90;;;;;;5069100;28;20185;-84
2024/01/17 11:08:13;;;;;;;4.65;3.55;;;3.00;99.90;;;;;;5081800;28;20205;-83
2024/01/17 11:10:40;;;;;;;3.38;2.42;;;3.10;99.90;;;;;;5072638;28;20196;-84
2024/01/17 11:13:09;;;;;;;8.60;3.30;;;3.00;99.90;;;;;;5066514;28;20172;-83
2024/01/17 11:15:37;;;;;;;5.53;3.42;;;3.00;99.90;;;;;;5068604;28;20191;-85
2024/01/17 11:18:05;;;;;;;6.72;3.17;;;3.00;99.90;;;;;;5071737;28;20243;-84
2024/01/17 11:20:31;;;;;;;3.28;2.42;;;3.00;99.90;;;;;;5071751;28;20184;-84
2024/01/17 11:22:57;;;;;;;7.97;2.87;;;3.00;99.90;;;;;;5069038;28;20193;-84
2024/01/17 11:25:34;;;;;;;2.33;2.13;;;3.00;99.90;;;;;;5068241;28;20219;-85
2024/01/17 11:28:21;;;;;;;4.88;2.85;;;3.00;99.90;;;;;;5084359;28;20201;-84
2024/01/17 11:31:15;;;;;;;1.60;1.50;;;3.10;99.90;;;;;;5066164;28;20180;-83
2024/01/17 11:33:43;;;;;;;3.50;2.40;;;3.10;99.90;;;;;;5072336;28;20248;-84
2024/01/17 11:36:45;;;;;;;3.75;3.13;;;3.20;99.90;;;;;;5071146;28;20579;-85
2024/01/17 11:39:16;;;;;;;5.60;2.78;;;3.20;99.90;;;;;;5071217;28;20181;-85
2024/01/17 11:41:42;;;;;;;2.33;1.98;;;3.30;99.90;;;;;;5066050;28;20698;-85
2024/01/17 11:44:10;;;;;;;4.20;2.95;;;3.40;99.90;;;;;;5068012;28;20169;-83
2024/01/17 11:46:36;;;;;;;3.53;3.22;;;3.40;99.90;;;;;;5061500;28;20224;-84
2024/01/17 11:49:05;;;;;;;2.10;1.38;;;3.40;99.90;;;;;;5064205;28;20298;-84
2024/01/17 11:51:32;;;;;;;4.95;2.10;;;3.50;99.90;;;;;;5068437;28;20181;-83
2024/01/17 11:53:58;;;;;;;2.13;1.75;;;3.60;99.90;;;;;;5066075;28;20790;-84
2024/01/17 11:56:26;;;;;;;3.80;1.13;;;3.60;99.90;;;;;;5062707;28;20209;-85
2024/01/17 11:58:57;;;;;;;4.35;1.55;;;3.60;99.90;;;;;;5069342;28;20203;-85
2024/01/17 12:01:22;;;;;;;9.32;2.10;;;3.70;99.90;;;;;;5060758;28;20189;-84
2024/01/17 12:03:52;;;;;;;4.83;2.67;;;3.70;99.90;;;;;;5062208;28;20192;-84
2024/01/17 12:06:18;;;;;;;2.50;1.58;;;3.80;99.90;;;;;;5068755;28;20215;-84
2024/01/17 12:08:44;;;;;;;2.05;1.65;;;3.80;99.90;;;;;;5064336;28;20251;-84
2024/01/17 12:11:10;;;;;;;9.13;4.70;;;3.90;99.90;;;;;;5067292;28;20177;-84
2024/01/17 12:13:37;;;;;;;4.93;1.80;;;3.90;99.90;;;;;;5067749;28;20437;-85
2024/01/17 12:16:03;;;;;;;5.30;3.55;;;3.90;99.90;;;;;;5066432;28;20436;-84
2024/01/17 12:18:28;;;;;;;4.15;2.92;;;4.10;99.90;;;;;;5070197;28;20237;-84
2024/01/17 12:20:55;;;;;;;3.73;1.67;;;4.20;99.90;;;;;;5072708;28;20264;-84
2024/01/17 12:23:27;;;;;;;1.95;1.40;;;4.20;99.90;;;;;;5068658;28;20490;-84
2024/01/17 12:25:53;;;;;;;2.67;1.85;;;4.10;99.90;;;;;;5066825;28;20177;-84
2024/01/17 12:28:23;;;;;;;4.60;3.53;;;4.10;99.90;;;;;;5064412;28;20261;-84
2024/01/17 12:31:04;;;;;;;1.90;1.25;;;4.10;99.90;;;;;;5066124;28;20177;-85
2024/01/17 12:33:38;;;;;;;1.77;1.67;;;4.10;99.90;;;;;;5068204;28;20173;-84
2024/01/17 12:36:06;;;;;;;8.70;3.50;;;4.10;99.90;;;;;;5064838;28;20639;-85
2024/01/17 12:38:35;;;;;;;9.75;3.80;;;4.00;99.90;;;;;;5066374;28;20385;-85
2024/01/17 12:41:05;;;;;;;8.25;3.97;;;4.10;99.90;;;;;;5070925;28;20267;-84
2024/01/17 12:43:34;;;;;;;3.72;2.72;;;4.10;99.90;;;;;;5068836;28;20181;-84
2024/01/17 12:46:00;;;;;;;5.22;4.30;;;4.10;99.90;;;;;;5065775;28;20197;-85
2024/01/17 12:48:27;;;;;;;2.38;2.17;;;4.30;99.90;;;;;;5062618;28;20219;-85